sensor_id;sensor_type;location;lat;lon;timestamp;P1;durP1;ratioP1;P2;durP2;ratioP2
24435;SDS011;12616;52.470;13.436;2023-04-25T00:00:25;5.33;;;3.07;;
24435;SDS011;12616;52.470;13.436;2023-04-25T00:02:53;3.87;;;2.73;;
24435;SDS011;12616;52.470;13.436;2023-04-25T00:05:21;3.40;;;3.13;;
24435;SDS011;12616;52.470;13.436;2023-04-25T00:07:48;4.53;;;3.60;;
24435;SDS011;12616;52.470;13.436;2023-04-25T00:10:15;2.80;;;2.60;;
24435;SDS011;12616;52.470;13.436;2023-04-25T00:12:42;4.20;;;3.17;;
24435;SDS011;12616;52.470;13.436;2023-04-25T00:15:09;4.50;;;2.60;;
24435;SDS011;12616;52.470;13.436;2023-04-25T00:17:37;6.00;;;3.30;;
24435;SDS011;12616;52.470;13.436;2023-04-25T00:20:06;3.50;;;2.97;;
24435;SDS011;12616;52.470;13.436;2023-04-25T00:22:34;4.60;;;2.50;;
24435;SDS011;12616;52.470;13.436;2023-04-25T00:25:03;2.80;;;2.60;;
24435;SDS011;12616;52.470;13.436;2023-04-25T00:27:31;3.20;;;2.63;;
24435;SDS011;12616;52.470;13.436;2023-04-25T00:29:58;5.63;;;3.23;;
24435;SDS011;12616;52.470;13.436;2023-04-25T00:32:27;4.23;;;2.93;;
24435;SDS011;12616;52.470;13.436;2023-04-25T00:34:54;4.73;;;2.47;;
24435;SDS011;12616;52.470;13.436;2023-04-25T00:37:24;5.00;;;2.90;;
24435;SDS011;12616;52.470;13.436;2023-04-25T00:39:51;2.60;;;2.20;;
24435;SDS011;12616;52.470;13.436;2023-04-25T00:42:18;3.77;;;2.90;;
24435;SDS011;12616;52.470;13.436;2023-04-25T00:44:45;6.40;;;3.17;;
24435;SDS011;12616;52.470;13.436;2023-04-25T00:47:13;3.90;;;2.80;;
24435;SDS011;12616;52.470;13.436;2023-04-25T00:49:41;2.80;;;2.60;;
24435;SDS011;12616;52.470;13.436;2023-04-25T00:52:08;3.77;;;3.30;;
24435;SDS011;12616;52.470;13.436;2023-04-25T00:54:37;6.10;;;3.30;;
24435;SDS011;12616;52.470;13.436;2023-04-25T00:57:04;5.50;;;3.40;;
24435;SDS011;12616;52.470;13.436;2023-04-25T00:59:31;4.30;;;3.33;;
24435;SDS011;12616;52.470;13.436;2023-04-25T01:01:57;5.07;;;3.00;;
24435;SDS011;12616;52.470;13.436;2023-04-25T01:04:25;5.20;;;2.90;;
24435;SDS011;12616;52.470;13.436;2023-04-25T01:06:53;6.93;;;2.90;;
24435;SDS011;12616;52.470;13.436;2023-04-25T01:09:20;6.20;;;3.70;;
24435;SDS011;12616;52.470;13.436;2023-04-25T01:11:50;3.97;;;3.60;;
24435;SDS011;12616;52.470;13.436;2023-04-25T01:14:17;5.67;;;3.30;;
24435;SDS011;12616;52.470;13.436;2023-04-25T01:16:44;10.80;;;4.37;;
24435;SDS011;12616;52.470;13.436;2023-04-25T01:19:11;2.53;;;2.33;;
24435;SDS011;12616;52.470;13.436;2023-04-25T01:21:42;8.50;;;3.73;;
24435;SDS011;12616;52.470;13.436;2023-04-25T01:24:10;8.30;;;3.30;;
24435;SDS011;12616;52.470;13.436;2023-04-25T01:26:37;4.27;;;2.90;;
24435;SDS011;12616;52.470;13.436;2023-04-25T01:29:05;5.33;;;3.50;;
24435;SDS011;12616;52.470;13.436;2023-04-25T01:31:33;4.30;;;3.47;;
24435;SDS011;12616;52.470;13.436;2023-04-25T01:34:01;6.87;;;3.43;;
24435;SDS011;12616;52.470;13.436;2023-04-25T01:36:29;5.23;;;3.23;;
24435;SDS011;12616;52.470;13.436;2023-04-25T01:38:57;8.83;;;3.60;;
24435;SDS011;12616;52.470;13.436;2023-04-25T01:41:25;6.60;;;3.23;;
24435;SDS011;12616;52.470;13.436;2023-04-25T01:43:52;10.60;;;3.77;;
24435;SDS011;12616;52.470;13.436;2023-04-25T01:46:19;4.73;;;3.30;;
24435;SDS011;12616;52.470;13.436;2023-04-25T01:48:46;9.07;;;4.17;;
24435;SDS011;12616;52.470;13.436;2023-04-25T01:51:13;5.70;;;3.73;;
24435;SDS011;12616;52.470;13.436;2023-04-25T01:53:40;4.80;;;4.00;;
24435;SDS011;12616;52.470;13.436;2023-04-25T01:56:09;5.33;;;3.83;;
24435;SDS011;12616;52.470;13.436;2023-04-25T01:58:36;4.70;;;3.30;;
24435;SDS011;12616;52.470;13.436;2023-04-25T02:01:03;4.37;;;3.00;;
24435;SDS011;12616;52.470;13.436;2023-04-25T02:03:31;3.57;;;3.20;;
24435;SDS011;12616;52.470;13.436;2023-04-25T02:05:58;4.03;;;3.63;;
24435;SDS011;12616;52.470;13.436;2023-04-25T02:08:25;5.23;;;3.93;;
24435;SDS011;12616;52.470;13.436;2023-04-25T02:10:52;4.60;;;3.90;;
24435;SDS011;12616;52.470;13.436;2023-04-25T02:13:20;5.97;;;3.73;;
24435;SDS011;12616;52.470;13.436;2023-04-25T02:15:47;7.53;;;3.97;;
24435;SDS011;12616;52.470;13.436;2023-04-25T02:18:13;7.73;;;3.80;;
24435;SDS011;12616;52.470;13.436;2023-04-25T02:20:41;8.50;;;4.70;;
24435;SDS011;12616;52.470;13.436;2023-04-25T02:23:09;8.93;;;4.00;;
24435;SDS011;12616;52.470;13.436;2023-04-25T02:25:36;4.40;;;4.00;;
24435;SDS011;12616;52.470;13.436;2023-04-25T02:28:02;6.37;;;4.37;;
24435;SDS011;12616;52.470;13.436;2023-04-25T02:30:31;6.97;;;4.37;;
24435;SDS011;12616;52.470;13.436;2023-04-25T02:32:58;5.63;;;4.50;;
24435;SDS011;12616;52.470;13.436;2023-04-25T02:35:25;8.57;;;3.90;;
24435;SDS011;12616;52.470;13.436;2023-04-25T02:37:51;7.03;;;4.40;;
24435;SDS011;12616;52.470;13.436;2023-04-25T02:40:18;5.13;;;4.63;;
24435;SDS011;12616;52.470;13.436;2023-04-25T02:42:45;4.30;;;3.90;;
24435;SDS011;12616;52.470;13.436;2023-04-25T02:45:12;5.00;;;3.90;;
24435;SDS011;12616;52.470;13.436;2023-04-25T02:47:40;4.83;;;3.83;;
24435;SDS011;12616;52.470;13.436;2023-04-25T02:50:07;5.80;;;3.67;;
24435;SDS011;12616;52.470;13.436;2023-04-25T02:52:34;4.97;;;4.43;;
24435;SDS011;12616;52.470;13.436;2023-04-25T02:55:01;8.03;;;4.70;;
24435;SDS011;12616;52.470;13.436;2023-04-25T02:57:28;7.47;;;4.53;;
24435;SDS011;12616;52.470;13.436;2023-04-25T02:59:55;8.97;;;5.23;;
24435;SDS011;12616;52.470;13.436;2023-04-25T03:02:21;11.70;;;5.27;;
24435;SDS011;12616;52.470;13.436;2023-04-25T03:04:50;6.30;;;4.27;;
24435;SDS011;12616;52.470;13.436;2023-04-25T03:07:16;12.50;;;5.50;;
24435;SDS011;12616;52.470;13.436;2023-04-25T03:09:43;5.17;;;4.67;;
24435;SDS011;12616;52.470;13.436;2023-04-25T03:12:10;12.63;;;5.27;;
24435;SDS011;12616;52.470;13.436;2023-04-25T03:14:37;5.53;;;4.30;;
24435;SDS011;12616;52.470;13.436;2023-04-25T03:17:04;7.17;;;4.60;;
24435;SDS011;12616;52.470;13.436;2023-04-25T03:19:30;6.90;;;4.67;;
24435;SDS011;12616;52.470;13.436;2023-04-25T03:21:58;12.50;;;5.90;;
24435;SDS011;12616;52.470;13.436;2023-04-25T03:24:25;6.43;;;5.03;;
24435;SDS011;12616;52.470;13.436;2023-04-25T03:26:53;9.60;;;5.30;;
24435;SDS011;12616;52.470;13.436;2023-04-25T03:29:20;5.93;;;4.33;;
24435;SDS011;12616;52.470;13.436;2023-04-25T03:31:49;8.23;;;5.17;;
24435;SDS011;12616;52.470;13.436;2023-04-25T03:34:16;8.73;;;5.80;;
24435;SDS011;12616;52.470;13.436;2023-04-25T03:36:43;11.10;;;4.40;;
24435;SDS011;12616;52.470;13.436;2023-04-25T03:39:11;6.90;;;5.63;;
24435;SDS011;12616;52.470;13.436;2023-04-25T03:41:38;5.17;;;4.73;;
24435;SDS011;12616;52.470;13.436;2023-04-25T03:44:05;6.50;;;4.83;;
24435;SDS011;12616;52.470;13.436;2023-04-25T03:46:31;10.20;;;4.43;;
24435;SDS011;12616;52.470;13.436;2023-04-25T03:48:58;4.90;;;4.33;;
24435;SDS011;12616;52.470;13.436;2023-04-25T03:51:25;6.57;;;5.27;;
24435;SDS011;12616;52.470;13.436;2023-04-25T03:53:52;8.83;;;4.47;;
24435;SDS011;12616;52.470;13.436;2023-04-25T03:56:20;10.43;;;5.40;;
24435;SDS011;12616;52.470;13.436;2023-04-25T03:58:47;9.70;;;4.60;;
24435;SDS011;12616;52.470;13.436;2023-04-25T04:01:14;6.83;;;4.20;;
24435;SDS011;12616;52.470;13.436;2023-04-25T04:03:41;7.30;;;5.03;;
24435;SDS011;12616;52.470;13.436;2023-04-25T04:06:07;6.87;;;5.00;;
24435;SDS011;12616;52.470;13.436;2023-04-25T04:08:35;8.77;;;4.70;;
24435;SDS011;12616;52.470;13.436;2023-04-25T04:11:02;10.20;;;5.40;;
24435;SDS011;12616;52.470;13.436;2023-04-25T04:13:30;10.00;;;4.73;;
24435;SDS011;12616;52.470;13.436;2023-04-25T04:15:57;7.60;;;5.77;;
24435;SDS011;12616;52.470;13.436;2023-04-25T04:18:24;8.17;;;5.40;;
24435;SDS011;12616;52.470;13.436;2023-04-25T04:20:51;5.10;;;4.63;;
24435;SDS011;12616;52.470;13.436;2023-04-25T04:23:18;10.60;;;5.20;;
24435;SDS011;12616;52.470;13.436;2023-04-25T04:25:46;7.50;;;4.80;;
24435;SDS011;12616;52.470;13.436;2023-04-25T04:28:13;7.60;;;5.37;;
24435;SDS011;12616;52.470;13.436;2023-04-25T04:30:42;6.03;;;4.90;;
24435;SDS011;12616;52.470;13.436;2023-04-25T04:33:12;6.20;;;4.37;;
24435;SDS011;12616;52.470;13.436;2023-04-25T04:35:40;14.00;;;4.97;;
24435;SDS011;12616;52.470;13.436;2023-04-25T04:38:07;9.70;;;5.40;;
24435;SDS011;12616;52.470;13.436;2023-04-25T04:40:35;6.13;;;5.53;;
24435;SDS011;12616;52.470;13.436;2023-04-25T04:43:02;8.20;;;5.77;;
24435;SDS011;12616;52.470;13.436;2023-04-25T04:45:29;8.60;;;5.60;;
24435;SDS011;12616;52.470;13.436;2023-04-25T04:47:57;5.97;;;4.87;;
24435;SDS011;12616;52.470;13.436;2023-04-25T04:50:24;5.80;;;4.70;;
24435;SDS011;12616;52.470;13.436;2023-04-25T04:52:52;10.00;;;5.70;;
24435;SDS011;12616;52.470;13.436;2023-04-25T04:55:20;5.77;;;4.70;;
24435;SDS011;12616;52.470;13.436;2023-04-25T04:57:47;7.90;;;4.80;;
24435;SDS011;12616;52.470;13.436;2023-04-25T05:00:14;9.00;;;4.73;;
24435;SDS011;12616;52.470;13.436;2023-04-25T05:02:41;5.90;;;4.53;;
24435;SDS011;12616;52.470;13.436;2023-04-25T05:05:10;6.43;;;4.43;;
24435;SDS011;12616;52.470;13.436;2023-04-25T05:07:36;8.93;;;5.83;;
24435;SDS011;12616;52.470;13.436;2023-04-25T05:10:04;6.07;;;4.90;;
24435;SDS011;12616;52.470;13.436;2023-04-25T05:12:31;5.43;;;4.30;;
24435;SDS011;12616;52.470;13.436;2023-04-25T05:14:58;10.83;;;5.77;;
24435;SDS011;12616;52.470;13.436;2023-04-25T05:17:25;10.93;;;5.37;;
24435;SDS011;12616;52.470;13.436;2023-04-25T05:19:52;9.80;;;6.23;;
24435;SDS011;12616;52.470;13.436;2023-04-25T05:22:20;7.03;;;5.37;;
24435;SDS011;12616;52.470;13.436;2023-04-25T05:24:47;5.70;;;5.10;;
24435;SDS011;12616;52.470;13.436;2023-04-25T05:27:16;12.23;;;5.10;;
24435;SDS011;12616;52.470;13.436;2023-04-25T05:29:43;5.23;;;4.73;;
24435;SDS011;12616;52.470;13.436;2023-04-25T05:32:10;9.93;;;5.90;;
24435;SDS011;12616;52.470;13.436;2023-04-25T05:34:37;6.07;;;5.03;;
24435;SDS011;12616;52.470;13.436;2023-04-25T05:37:04;10.53;;;5.20;;
24435;SDS011;12616;52.470;13.436;2023-04-25T05:39:33;10.60;;;4.97;;
24435;SDS011;12616;52.470;13.436;2023-04-25T05:42:00;9.33;;;5.20;;
24435;SDS011;12616;52.470;13.436;2023-04-25T05:44:28;6.33;;;4.53;;
24435;SDS011;12616;52.470;13.436;2023-04-25T05:46:56;8.60;;;5.67;;
24435;SDS011;12616;52.470;13.436;2023-04-25T05:49:22;6.83;;;5.10;;
24435;SDS011;12616;52.470;13.436;2023-04-25T05:51:49;7.70;;;5.57;;
24435;SDS011;12616;52.470;13.436;2023-04-25T05:54:16;5.90;;;4.80;;
24435;SDS011;12616;52.470;13.436;2023-04-25T05:56:44;7.87;;;5.40;;
24435;SDS011;12616;52.470;13.436;2023-04-25T05:59:11;9.80;;;4.70;;
24435;SDS011;12616;52.470;13.436;2023-04-25T06:01:38;8.60;;;5.40;;
24435;SDS011;12616;52.470;13.436;2023-04-25T06:04:05;7.70;;;4.70;;
24435;SDS011;12616;52.470;13.436;2023-04-25T06:06:32;8.37;;;5.20;;
24435;SDS011;12616;52.470;13.436;2023-04-25T06:08:59;10.00;;;6.20;;
24435;SDS011;12616;52.470;13.436;2023-04-25T06:11:26;10.53;;;5.40;;
24435;SDS011;12616;52.470;13.436;2023-04-25T06:13:54;11.07;;;7.73;;
24435;SDS011;12616;52.470;13.436;2023-04-25T06:16:20;8.70;;;7.30;;
24435;SDS011;12616;52.470;13.436;2023-04-25T06:18:47;8.77;;;6.57;;
24435;SDS011;12616;52.470;13.436;2023-04-25T06:21:14;8.77;;;6.10;;
24435;SDS011;12616;52.470;13.436;2023-04-25T06:23:41;13.33;;;7.13;;
24435;SDS011;12616;52.470;13.436;2023-04-25T06:26:08;6.60;;;5.90;;
24435;SDS011;12616;52.470;13.436;2023-04-25T06:28:35;7.00;;;5.47;;
24435;SDS011;12616;52.470;13.436;2023-04-25T06:31:03;10.17;;;5.00;;
24435;SDS011;12616;52.470;13.436;2023-04-25T06:33:30;10.57;;;6.10;;
24435;SDS011;12616;52.470;13.436;2023-04-25T06:35:56;7.83;;;5.60;;
24435;SDS011;12616;52.470;13.436;2023-04-25T06:38:23;7.10;;;5.60;;
24435;SDS011;12616;52.470;13.436;2023-04-25T06:40:50;10.23;;;5.83;;
24435;SDS011;12616;52.470;13.436;2023-04-25T06:43:17;6.30;;;5.70;;
24435;SDS011;12616;52.470;13.436;2023-04-25T06:45:44;7.43;;;6.00;;
24435;SDS011;12616;52.470;13.436;2023-04-25T06:48:12;6.43;;;5.83;;
24435;SDS011;12616;52.470;13.436;2023-04-25T06:50:40;6.43;;;5.37;;
24435;SDS011;12616;52.470;13.436;2023-04-25T06:53:07;8.43;;;5.80;;
24435;SDS011;12616;52.470;13.436;2023-04-25T06:55:36;8.60;;;6.33;;
24435;SDS011;12616;52.470;13.436;2023-04-25T06:58:04;7.70;;;5.90;;
24435;SDS011;12616;52.470;13.436;2023-04-25T07:00:32;10.93;;;7.50;;
24435;SDS011;12616;52.470;13.436;2023-04-25T07:02:59;6.27;;;5.60;;
24435;SDS011;12616;52.470;13.436;2023-04-25T07:05:27;11.73;;;8.20;;
24435;SDS011;12616;52.470;13.436;2023-04-25T07:07:54;5.00;;;4.50;;
24435;SDS011;12616;52.470;13.436;2023-04-25T07:10:21;9.47;;;5.53;;
24435;SDS011;12616;52.470;13.436;2023-04-25T07:12:48;7.10;;;5.30;;
24435;SDS011;12616;52.470;13.436;2023-04-25T07:15:14;10.80;;;5.10;;
24435;SDS011;12616;52.470;13.436;2023-04-25T07:17:41;5.90;;;5.30;;
24435;SDS011;12616;52.470;13.436;2023-04-25T07:20:08;8.27;;;4.93;;
24435;SDS011;12616;52.470;13.436;2023-04-25T07:22:40;6.97;;;4.90;;
24435;SDS011;12616;52.470;13.436;2023-04-25T07:25:08;10.20;;;5.60;;
24435;SDS011;12616;52.470;13.436;2023-04-25T07:27:35;13.40;;;5.80;;
24435;SDS011;12616;52.470;13.436;2023-04-25T07:30:02;11.47;;;7.83;;
24435;SDS011;12616;52.470;13.436;2023-04-25T07:32:30;4.67;;;4.27;;
24435;SDS011;12616;52.470;13.436;2023-04-25T07:34:56;9.87;;;5.67;;
24435;SDS011;12616;52.470;13.436;2023-04-25T07:37:23;7.60;;;4.30;;
24435;SDS011;12616;52.470;13.436;2023-04-25T07:39:52;5.87;;;4.33;;
24435;SDS011;12616;52.470;13.436;2023-04-25T07:42:19;11.10;;;4.27;;
24435;SDS011;12616;52.470;13.436;2023-04-25T07:44:46;15.13;;;5.63;;
24435;SDS011;12616;52.470;13.436;2023-04-25T07:47:13;7.63;;;4.23;;
24435;SDS011;12616;52.470;13.436;2023-04-25T07:49:40;6.40;;;5.43;;
24435;SDS011;12616;52.470;13.436;2023-04-25T07:52:06;8.40;;;5.00;;
24435;SDS011;12616;52.470;13.436;2023-04-25T07:54:33;12.20;;;5.80;;
24435;SDS011;12616;52.470;13.436;2023-04-25T07:57:02;12.10;;;5.10;;
24435;SDS011;12616;52.470;13.436;2023-04-25T07:59:29;11.00;;;5.00;;
24435;SDS011;12616;52.470;13.436;2023-04-25T08:01:55;11.97;;;4.90;;
24435;SDS011;12616;52.470;13.436;2023-04-25T08:04:23;9.80;;;4.77;;
24435;SDS011;12616;52.470;13.436;2023-04-25T08:06:50;9.30;;;5.27;;
24435;SDS011;12616;52.470;13.436;2023-04-25T08:09:18;16.00;;;5.17;;
24435;SDS011;12616;52.470;13.436;2023-04-25T08:11:45;20.43;;;5.20;;
24435;SDS011;12616;52.470;13.436;2023-04-25T08:14:13;13.80;;;5.47;;
24435;SDS011;12616;52.470;13.436;2023-04-25T08:16:40;17.03;;;5.17;;
24435;SDS011;12616;52.470;13.436;2023-04-25T08:19:07;15.40;;;5.27;;
24435;SDS011;12616;52.470;13.436;2023-04-25T08:21:33;12.10;;;4.90;;
24435;SDS011;12616;52.470;13.436;2023-04-25T08:24:00;12.63;;;4.00;;
24435;SDS011;12616;52.470;13.436;2023-04-25T08:26:28;13.57;;;4.97;;
24435;SDS011;12616;52.470;13.436;2023-04-25T08:28:55;13.30;;;5.07;;
24435;SDS011;12616;52.470;13.436;2023-04-25T08:31:23;13.73;;;7.40;;
24435;SDS011;12616;52.470;13.436;2023-04-25T08:33:50;16.60;;;4.90;;
24435;SDS011;12616;52.470;13.436;2023-04-25T08:36:17;16.67;;;4.80;;
24435;SDS011;12616;52.470;13.436;2023-04-25T08:38:44;6.93;;;4.33;;
24435;SDS011;12616;52.470;13.436;2023-04-25T08:41:11;13.40;;;5.20;;
24435;SDS011;12616;52.470;13.436;2023-04-25T08:43:40;12.60;;;5.30;;
24435;SDS011;12616;52.470;13.436;2023-04-25T08:46:09;14.40;;;5.93;;
24435;SDS011;12616;52.470;13.436;2023-04-25T08:48:39;9.03;;;4.30;;
24435;SDS011;12616;52.470;13.436;2023-04-25T08:51:08;7.00;;;3.70;;
24435;SDS011;12616;52.470;13.436;2023-04-25T08:53:40;9.70;;;4.40;;
24435;SDS011;12616;52.470;13.436;2023-04-25T08:56:08;8.50;;;4.43;;
24435;SDS011;12616;52.470;13.436;2023-04-25T08:58:38;13.03;;;4.00;;
24435;SDS011;12616;52.470;13.436;2023-04-25T09:01:05;10.47;;;3.40;;
24435;SDS011;12616;52.470;13.436;2023-04-25T09:03:32;15.83;;;3.63;;
24435;SDS011;12616;52.470;13.436;2023-04-25T09:06:00;10.07;;;3.80;;
24435;SDS011;12616;52.470;13.436;2023-04-25T09:08:28;10.40;;;3.90;;
24435;SDS011;12616;52.470;13.436;2023-04-25T09:10:55;5.63;;;2.87;;
24435;SDS011;12616;52.470;13.436;2023-04-25T09:13:24;8.63;;;5.63;;
24435;SDS011;12616;52.470;13.436;2023-04-25T09:15:53;16.30;;;4.40;;
24435;SDS011;12616;52.470;13.436;2023-04-25T09:18:23;13.33;;;5.10;;
24435;SDS011;12616;52.470;13.436;2023-04-25T09:20:52;8.43;;;4.10;;
24435;SDS011;12616;52.470;13.436;2023-04-25T09:23:21;8.00;;;3.60;;
24435;SDS011;12616;52.470;13.436;2023-04-25T09:25:49;13.70;;;4.80;;
24435;SDS011;12616;52.470;13.436;2023-04-25T09:28:22;5.83;;;2.90;;
24435;SDS011;12616;52.470;13.436;2023-04-25T09:30:54;10.33;;;3.50;;
24435;SDS011;12616;52.470;13.436;2023-04-25T09:33:26;11.53;;;3.40;;
24435;SDS011;12616;52.470;13.436;2023-04-25T09:36:01;8.43;;;3.67;;
24435;SDS011;12616;52.470;13.436;2023-04-25T09:38:31;6.37;;;3.30;;
24435;SDS011;12616;52.470;13.436;2023-04-25T09:40:59;6.30;;;3.50;;
24435;SDS011;12616;52.470;13.436;2023-04-25T09:43:26;6.93;;;3.27;;
24435;SDS011;12616;52.470;13.436;2023-04-25T09:45:54;7.70;;;3.10;;
24435;SDS011;12616;52.470;13.436;2023-04-25T09:48:24;11.67;;;5.00;;
24435;SDS011;12616;52.470;13.436;2023-04-25T09:51:06;10.10;;;3.47;;
24435;SDS011;12616;52.470;13.436;2023-04-25T09:53:35;11.83;;;4.47;;
24435;SDS011;12616;52.470;13.436;2023-04-25T09:56:03;9.30;;;3.50;;
24435;SDS011;12616;52.470;13.436;2023-04-25T09:58:32;8.47;;;3.53;;
24435;SDS011;12616;52.470;13.436;2023-04-25T10:01:00;5.77;;;3.60;;
24435;SDS011;12616;52.470;13.436;2023-04-25T10:03:29;7.17;;;3.10;;
24435;SDS011;12616;52.470;13.436;2023-04-25T10:05:57;14.57;;;3.60;;
24435;SDS011;12616;52.470;13.436;2023-04-25T10:08:27;9.40;;;3.30;;
24435;SDS011;12616;52.470;13.436;2023-04-25T10:11:00;7.90;;;3.33;;
24435;SDS011;12616;52.470;13.436;2023-04-25T10:13:28;7.30;;;2.90;;
24435;SDS011;12616;52.470;13.436;2023-04-25T10:15:57;9.57;;;3.60;;
24435;SDS011;12616;52.470;13.436;2023-04-25T10:18:24;16.30;;;4.07;;
24435;SDS011;12616;52.470;13.436;2023-04-25T10:20:53;11.17;;;3.00;;
24435;SDS011;12616;52.470;13.436;2023-04-25T10:23:20;10.87;;;3.97;;
24435;SDS011;12616;52.470;13.436;2023-04-25T10:25:48;7.90;;;3.63;;
24435;SDS011;12616;52.470;13.436;2023-04-25T10:28:17;9.57;;;2.70;;
24435;SDS011;12616;52.470;13.436;2023-04-25T10:30:57;6.93;;;3.23;;
24435;SDS011;12616;52.470;13.436;2023-04-25T10:33:32;4.17;;;2.50;;
24435;SDS011;12616;52.470;13.436;2023-04-25T10:36:08;8.00;;;3.17;;
24435;SDS011;12616;52.470;13.436;2023-04-25T10:38:36;14.07;;;3.40;;
24435;SDS011;12616;52.470;13.436;2023-04-25T10:41:03;5.90;;;3.10;;
24435;SDS011;12616;52.470;13.436;2023-04-25T10:43:36;7.90;;;3.23;;
24435;SDS011;12616;52.470;13.436;2023-04-25T10:46:12;8.80;;;3.40;;
24435;SDS011;12616;52.470;13.436;2023-04-25T10:48:44;8.67;;;3.67;;
24435;SDS011;12616;52.470;13.436;2023-04-25T10:51:15;5.80;;;2.73;;
24435;SDS011;12616;52.470;13.436;2023-04-25T10:53:44;4.67;;;2.80;;
24435;SDS011;12616;52.470;13.436;2023-04-25T10:56:11;9.63;;;3.87;;
24435;SDS011;12616;52.470;13.436;2023-04-25T10:58:44;9.23;;;4.20;;
24435;SDS011;12616;52.470;13.436;2023-04-25T11:01:12;9.93;;;4.20;;
24435;SDS011;12616;52.470;13.436;2023-04-25T11:03:40;4.57;;;3.03;;
24435;SDS011;12616;52.470;13.436;2023-04-25T11:06:14;5.43;;;3.17;;
24435;SDS011;12616;52.470;13.436;2023-04-25T11:08:49;10.43;;;4.10;;
24435;SDS011;12616;52.470;13.436;2023-04-25T11:11:17;7.03;;;2.70;;
24435;SDS011;12616;52.470;13.436;2023-04-25T11:13:48;12.57;;;5.30;;
24435;SDS011;12616;52.470;13.436;2023-04-25T11:16:15;9.27;;;5.00;;
24435;SDS011;12616;52.470;13.436;2023-04-25T11:18:42;6.13;;;3.90;;
24435;SDS011;12616;52.470;13.436;2023-04-25T11:21:09;5.33;;;3.50;;
24435;SDS011;12616;52.470;13.436;2023-04-25T11:23:37;6.20;;;3.17;;
24435;SDS011;12616;52.470;13.436;2023-04-25T11:26:04;11.73;;;3.60;;
24435;SDS011;12616;52.470;13.436;2023-04-25T11:28:30;11.43;;;3.50;;
24435;SDS011;12616;52.470;13.436;2023-04-25T11:30:59;3.73;;;2.43;;
24435;SDS011;12616;52.470;13.436;2023-04-25T11:33:26;4.03;;;2.97;;
24435;SDS011;12616;52.470;13.436;2023-04-25T11:35:53;7.30;;;3.00;;
24435;SDS011;12616;52.470;13.436;2023-04-25T11:38:21;8.93;;;3.00;;
24435;SDS011;12616;52.470;13.436;2023-04-25T11:40:51;5.00;;;3.60;;
24435;SDS011;12616;52.470;13.436;2023-04-25T11:43:20;6.90;;;3.07;;
24435;SDS011;12616;52.470;13.436;2023-04-25T11:45:47;4.40;;;2.40;;
24435;SDS011;12616;52.470;13.436;2023-04-25T11:48:16;4.27;;;3.07;;
24435;SDS011;12616;52.470;13.436;2023-04-25T11:50:44;5.53;;;3.10;;
24435;SDS011;12616;52.470;13.436;2023-04-25T11:53:11;5.70;;;2.37;;
24435;SDS011;12616;52.470;13.436;2023-04-25T11:55:38;2.50;;;2.10;;
24435;SDS011;12616;52.470;13.436;2023-04-25T11:58:06;7.70;;;3.30;;
24435;SDS011;12616;52.470;13.436;2023-04-25T12:00:33;5.80;;;2.93;;
24435;SDS011;12616;52.470;13.436;2023-04-25T12:03:00;11.03;;;2.73;;
24435;SDS011;12616;52.470;13.436;2023-04-25T12:05:29;8.13;;;2.90;;
24435;SDS011;12616;52.470;13.436;2023-04-25T12:07:58;3.50;;;2.97;;
24435;SDS011;12616;52.470;13.436;2023-04-25T12:10:36;7.00;;;2.20;;
24435;SDS011;12616;52.470;13.436;2023-04-25T12:13:17;4.90;;;2.20;;
24435;SDS011;12616;52.470;13.436;2023-04-25T12:15:44;9.73;;;3.40;;
24435;SDS011;12616;52.470;13.436;2023-04-25T12:18:11;10.33;;;2.93;;
24435;SDS011;12616;52.470;13.436;2023-04-25T12:20:39;4.73;;;2.60;;
24435;SDS011;12616;52.470;13.436;2023-04-25T12:23:08;5.27;;;2.70;;
24435;SDS011;12616;52.470;13.436;2023-04-25T12:25:36;4.17;;;2.70;;
24435;SDS011;12616;52.470;13.436;2023-04-25T12:28:13;8.23;;;2.83;;
24435;SDS011;12616;52.470;13.436;2023-04-25T12:30:57;4.80;;;2.77;;
24435;SDS011;12616;52.470;13.436;2023-04-25T12:33:26;7.27;;;2.70;;
24435;SDS011;12616;52.470;13.436;2023-04-25T12:35:55;8.03;;;2.87;;
24435;SDS011;12616;52.470;13.436;2023-04-25T12:38:26;8.27;;;2.83;;
24435;SDS011;12616;52.470;13.436;2023-04-25T12:40:55;7.17;;;3.00;;
24435;SDS011;12616;52.470;13.436;2023-04-25T12:43:22;4.53;;;2.50;;
24435;SDS011;12616;52.470;13.436;2023-04-25T12:45:50;8.23;;;3.20;;
24435;SDS011;12616;52.470;13.436;2023-04-25T12:48:18;3.47;;;2.60;;
24435;SDS011;12616;52.470;13.436;2023-04-25T12:50:46;5.67;;;2.73;;
24435;SDS011;12616;52.470;13.436;2023-04-25T12:53:15;7.37;;;2.90;;
24435;SDS011;12616;52.470;13.436;2023-04-25T12:55:42;4.10;;;3.07;;
24435;SDS011;12616;52.470;13.436;2023-04-25T12:58:11;9.60;;;3.37;;
24435;SDS011;12616;52.470;13.436;2023-04-25T13:00:38;4.70;;;3.10;;
24435;SDS011;12616;52.470;13.436;2023-04-25T13:03:05;8.50;;;3.33;;
24435;SDS011;12616;52.470;13.436;2023-04-25T13:05:32;7.27;;;2.97;;
24435;SDS011;12616;52.470;13.436;2023-04-25T13:07:59;4.60;;;2.67;;
24435;SDS011;12616;52.470;13.436;2023-04-25T13:10:27;7.80;;;2.33;;
24435;SDS011;12616;52.470;13.436;2023-04-25T13:12:54;8.13;;;3.03;;
24435;SDS011;12616;52.470;13.436;2023-04-25T13:15:21;4.33;;;2.13;;
24435;SDS011;12616;52.470;13.436;2023-04-25T13:17:48;4.40;;;2.80;;
24435;SDS011;12616;52.470;13.436;2023-04-25T13:20:15;4.20;;;1.93;;
24435;SDS011;12616;52.470;13.436;2023-04-25T13:22:44;6.20;;;2.73;;
24435;SDS011;12616;52.470;13.436;2023-04-25T13:25:11;8.03;;;2.00;;
24435;SDS011;12616;52.470;13.436;2023-04-25T13:27:39;3.20;;;1.97;;
24435;SDS011;12616;52.470;13.436;2023-04-25T13:30:06;5.33;;;2.27;;
24435;SDS011;12616;52.470;13.436;2023-04-25T13:32:34;6.70;;;2.57;;
24435;SDS011;12616;52.470;13.436;2023-04-25T13:35:02;3.33;;;2.03;;
24435;SDS011;12616;52.470;13.436;2023-04-25T13:37:29;4.40;;;2.60;;
24435;SDS011;12616;52.470;13.436;2023-04-25T13:39:58;2.93;;;1.87;;
24435;SDS011;12616;52.470;13.436;2023-04-25T13:42:25;3.27;;;1.93;;
24435;SDS011;12616;52.470;13.436;2023-04-25T13:44:53;4.93;;;2.40;;
24435;SDS011;12616;52.470;13.436;2023-04-25T13:47:20;3.30;;;3.00;;
24435;SDS011;12616;52.470;13.436;2023-04-25T13:49:55;5.63;;;2.27;;
24435;SDS011;12616;52.470;13.436;2023-04-25T13:52:33;5.87;;;2.43;;
24435;SDS011;12616;52.470;13.436;2023-04-25T13:55:00;3.77;;;3.03;;
24435;SDS011;12616;52.470;13.436;2023-04-25T13:57:28;4.50;;;3.33;;
24435;SDS011;12616;52.470;13.436;2023-04-25T13:59:57;3.90;;;2.97;;
24435;SDS011;12616;52.470;13.436;2023-04-25T14:02:29;5.67;;;2.90;;
24435;SDS011;12616;52.470;13.436;2023-04-25T14:04:56;4.07;;;2.50;;
24435;SDS011;12616;52.470;13.436;2023-04-25T14:07:23;5.70;;;2.67;;
24435;SDS011;12616;52.470;13.436;2023-04-25T14:09:50;2.87;;;2.53;;
24435;SDS011;12616;52.470;13.436;2023-04-25T14:12:17;6.60;;;2.83;;
24435;SDS011;12616;52.470;13.436;2023-04-25T14:14:44;2.30;;;2.10;;
24435;SDS011;12616;52.470;13.436;2023-04-25T14:17:12;2.97;;;2.67;;
24435;SDS011;12616;52.470;13.436;2023-04-25T14:19:39;3.50;;;2.30;;
24435;SDS011;12616;52.470;13.436;2023-04-25T14:22:08;4.47;;;2.63;;
24435;SDS011;12616;52.470;13.436;2023-04-25T14:24:35;4.53;;;2.50;;
24435;SDS011;12616;52.470;13.436;2023-04-25T14:27:03;4.80;;;2.07;;
24435;SDS011;12616;52.470;13.436;2023-04-25T14:29:30;4.40;;;1.90;;
24435;SDS011;12616;52.470;13.436;2023-04-25T14:31:57;5.70;;;2.10;;
24435;SDS011;12616;52.470;13.436;2023-04-25T14:34:25;3.90;;;2.00;;